Time;durP1;ratioP1;P1;durP2;ratioP2;P2;SDS_P1;SDS_P2;PMS_P1;PMS_P2;Temp;Humidity;BMP_temperature;BMP_pressure;BME280_temperature;BME280_humidity;BME280_pressure;Samples;Min_cycle;Max_cycle;Signal;HPM_P1;HPM_P2
2022/07/09 00:00:25;;;;;;;;;;;17.50;99.90;;;;;;4590729;19;19923;-33
2022/07/09 00:02:09;;;;;;;;;;;17.50;99.90;;;;;;4590783;19;20643;-32
2022/07/09 00:03:40;;;;;;;;;;;17.50;99.90;;;;;;4589465;19;19926;-32
2022/07/09 00:05:13;;;;;;;;;;;17.50;99.90;;;;;;4589994;19;19911;-32
2022/07/09 00:06:44;;;;;;;;;;;17.50;99.90;;;;;;4589640;19;19965;-32
2022/07/09 00:08:15;;;;;;;;;;;17.50;99.90;;;;;;4587930;19;19915;-31
2022/07/09 00:09:46;;;;;;;;;;;17.50;99.90;;;;;;4590871;19;19923;-32
2022/07/09 00:11:17;;;;;;;;;;;17.50;99.90;;;;;;4592148;19;19925;-32
2022/07/09 00:12:48;;;;;;;;;;;17.50;99.90;;;;;;4591565;19;19926;-32
2022/07/09 00:14:19;;;;;;;;;;;17.50;99.90;;;;;;4590958;19;19922;-32
2022/07/09 00:15:50;;;;;;;;;;;17.50;99.90;;;;;;4590804;19;19915;-33
2022/07/09 00:17:21;;;;;;;;;;;17.50;99.90;;;;;;4590200;19;19923;-32
2022/07/09 00:18:52;;;;;;;;;;;17.50;99.90;;;;;;4589799;19;20240;-32
2022/07/09 00:20:29;;;;;;;;;;;17.50;99.90;;;;;;4589394;19;19943;-32
2022/07/09 00:22:00;;;;;;;;;;;17.50;99.90;;;;;;4589444;19;19922;-32
2022/07/09 00:23:31;;;;;;;;;;;17.50;99.90;;;;;;4589400;19;19921;-33
2022/07/09 00:25:02;;;;;;;;;;;17.50;99.90;;;;;;4591863;19;19919;-32
2022/07/09 00:26:33;;;;;;;;;;;17.50;99.90;;;;;;4591647;19;19915;-32
2022/07/09 00:28:04;;;;;;;;;;;17.50;99.90;;;;;;4591205;19;19939;-32
2022/07/09 00:29:35;;;;;;;;;;;17.50;99.90;;;;;;4589858;19;19918;-32
2022/07/09 00:31:06;;;;;;;;;;;17.50;99.90;;;;;;4590160;19;19915;-32
2022/07/09 00:32:37;;;;;;;;;;;17.50;99.90;;;;;;4589562;19;19915;-32
2022/07/09 00:34:08;;;;;;;;;;;17.50;99.90;;;;;;4592002;19;19996;-32
2022/07/09 00:35:39;;;;;;;;;;;17.50;99.90;;;;;;4591630;19;19915;-32
2022/07/09 00:37:11;;;;;;;;;;;17.50;99.90;;;;;;4591757;19;20348;-32
2022/07/09 00:38:42;;;;;;;;;;;17.50;99.90;;;;;;4591217;19;20325;-32
2022/07/09 00:40:13;;;;;;;;;;;17.50;99.90;;;;;;4590484;19;19922;-32
2022/07/09 00:41:44;;;;;;;;;;;17.50;99.90;;;;;;4590018;19;19942;-32
2022/07/09 00:43:16;;;;;;;;;;;17.50;99.90;;;;;;4589820;19;19914;-32
2022/07/09 00:44:47;;;;;;;;;;;17.50;99.90;;;;;;4588604;19;19939;-31
2022/07/09 00:46:17;;;;;;;;;;;17.50;99.90;;;;;;4588434;19;19952;-32
2022/07/09 00:47:49;;;;;;;;;;;17.50;99.90;;;;;;4589166;19;19974;-32
2022/07/09 00:49:20;;;;;;;;;;;17.50;99.90;;;;;;4590002;19;19931;-31
2022/07/09 00:50:50;;;;;;;;;;;17.50;99.90;;;;;;4590723;19;19942;-32
2022/07/09 00:52:21;;;;;;;;;;;17.50;99.90;;;;;;4590266;19;19959;-32
2022/07/09 00:53:53;;;;;;;;;;;17.40;99.90;;;;;;4589840;19;19918;-32
2022/07/09 00:55:24;;;;;;;;;;;17.50;99.90;;;;;;4590325;19;19933;-32
2022/07/09 00:56:55;;;;;;;;;;;17.50;99.90;;;;;;4588304;19;19923;-32
2022/07/09 00:58:26;;;;;;;;;;;17.50;99.90;;;;;;4588856;19;19944;-31
2022/07/09 00:59:57;;;;;;;;;;;17.40;99.90;;;;;;4587898;19;19940;-33
2022/07/09 01:01:28;;;;;;;;;;;17.50;99.90;;;;;;4589149;19;19919;-32
2022/07/09 01:02:59;;;;;;;;;;;17.50;99.90;;;;;;4591312;19;19995;-33
2022/07/09 01:04:30;;;;;;;;;;;17.40;99.90;;;;;;4591265;19;19911;-32
2022/07/09 01:06:01;;;;;;;;;;;17.50;99.90;;;;;;4590598;19;19929;-32
2022/07/09 01:07:32;;;;;;;;;;;17.40;99.90;;;;;;4590232;19;19942;-32
2022/07/09 01:09:03;;;;;;;;;;;17.50;99.90;;;;;;4589076;19;20380;-32
2022/07/09 01:10:34;;;;;;;;;;;17.50;99.90;;;;;;4589310;19;19919;-32
2022/07/09 01:12:06;;;;;;;;;;;17.50;99.90;;;;;;4589500;19;19911;-32
2022/07/09 01:13:37;;;;;;;;;;;17.50;99.90;;;;;;4588660;19;19926;-32
2022/07/09 01:15:08;;;;;;;;;;;17.50;99.90;;;;;;4587383;19;19982;-32
2022/07/09 01:16:39;;;;;;;;;;;17.50;99.90;;;;;;4591119;19;19935;-32
2022/07/09 01:18:11;;;;;;;;;;;17.50;99.90;;;;;;4591221;19;19936;-32
2022/07/09 01:19:42;;;;;;;;;;;17.50;99.90;;;;;;4591538;19;20299;-32
2022/07/09 01:21:13;;;;;;;;;;;17.50;99.90;;;;;;4594863;19;19935;-31
2022/07/09 01:22:44;;;;;;;;;;;17.50;99.90;;;;;;4593427;19;19926;-31
2022/07/09 01:24:15;;;;;;;;;;;17.50;99.90;;;;;;4592767;19;20375;-32
2022/07/09 01:25:46;;;;;;;;;;;17.50;99.90;;;;;;4593388;19;19919;-33
2022/07/09 01:27:17;;;;;;;;;;;17.50;99.90;;;;;;4592466;19;19907;-33
2022/07/09 01:28:48;;;;;;;;;;;17.50;99.90;;;;;;4592441;19;19932;-32
2022/07/09 01:30:26;;;;;;;;;;;17.50;99.90;;;;;;4592926;19;19922;-33
2022/07/09 01:31:57;;;;;;;;;;;17.50;99.90;;;;;;4595204;19;20389;-32
2022/07/09 01:33:28;;;;;;;;;;;17.50;99.90;;;;;;4594530;19;19914;-32
2022/07/09 01:34:59;;;;;;;;;;;17.50;99.90;;;;;;4594347;19;19919;-32
2022/07/09 01:36:30;;;;;;;;;;;17.50;99.90;;;;;;4593846;19;19923;-32
2022/07/09 01:38:01;;;;;;;;;;;17.50;99.90;;;;;;4592981;19;19923;-32
2022/07/09 01:39:32;;;;;;;;;;;17.50;99.90;;;;;;4592871;19;19918;-32
2022/07/09 01:41:03;;;;;;;;;;;17.50;99.90;;;;;;4593206;19;19911;-31
2022/07/09 01:42:34;;;;;;;;;;;17.50;99.90;;;;;;4595461;19;19954;-32
2022/07/09 01:44:06;;;;;;;;;;;17.50;99.90;;;;;;4595081;19;19933;-32
2022/07/09 01:45:37;;;;;;;;;;;17.50;99.90;;;;;;4594864;19;19915;-31
2022/07/09 01:47:08;;;;;;;;;;;17.50;99.90;;;;;;4594276;19;19923;-33
2022/07/09 01:48:42;;;;;;;;;;;17.50;99.90;;;;;;4593570;19;19923;-33
2022/07/09 01:50:13;;;;;;;;;;;17.50;99.90;;;;;;4593557;19;19926;-31
2022/07/09 01:51:43;;;;;;;;;;;17.50;99.90;;;;;;4593352;19;19978;-33
2022/07/09 01:53:14;;;;;;;;;;;17.50;99.90;;;;;;4591009;19;19923;-32
2022/07/09 01:54:46;;;;;;;;;;;17.50;99.90;;;;;;4592792;19;20318;-32
2022/07/09 01:56:16;;;;;;;;;;;17.50;99.90;;;;;;4595111;19;19930;-32
2022/07/09 01:57:47;;;;;;;;;;;17.50;99.90;;;;;;4594907;19;19919;-32
2022/07/09 01:59:18;;;;;;;;;;;17.50;99.90;;;;;;4594396;19;20283;-32
2022/07/09 02:00:50;;;;;;;;;;;17.40;99.90;;;;;;4594167;19;19971;-32
2022/07/09 02:02:21;;;;;;;;;;;17.40;99.90;;;;;;4593621;19;19922;-32
2022/07/09 02:03:52;;;;;;;;;;;17.50;99.90;;;;;;4593366;19;20361;-32
2022/07/09 02:05:22;;;;;;;;;;;17.40;99.90;;;;;;4591589;19;19926;-32
2022/07/09 02:06:54;;;;;;;;;;;17.50;99.90;;;;;;4591751;19;19934;-32
2022/07/09 02:08:26;;;;;;;;;;;17.50;99.90;;;;;;4592285;19;19911;-32
2022/07/09 02:09:57;;;;;;;;;;;17.50;99.90;;;;;;4590541;19;19986;-31
2022/07/09 02:11:28;;;;;;;;;;;17.40;99.90;;;;;;4594570;19;19923;-31
2022/07/09 02:12:59;;;;;;;;;;;17.50;99.90;;;;;;4593319;19;19919;-32
2022/07/09 02:14:30;;;;;;;;;;;17.50;99.90;;;;;;4593939;19;19915;-33
2022/07/09 02:16:01;;;;;;;;;;;17.50;99.90;;;;;;4593442;19;19939;-33
2022/07/09 02:17:32;;;;;;;;;;;17.50;99.90;;;;;;4591764;19;19911;-32
2022/07/09 02:19:04;;;;;;;;;;;17.50;99.90;;;;;;4592665;19;20249;-32
2022/07/09 02:20:35;;;;;;;;;;;17.40;99.90;;;;;;4592823;19;19949;-32
2022/07/09 02:22:06;;;;;;;;;;;17.50;99.90;;;;;;4592037;19;19923;-33
2022/07/09 02:23:37;;;;;;;;;;;17.50;99.90;;;;;;4592240;19;19922;-32
2022/07/09 02:25:08;;;;;;;;;;;17.50;99.90;;;;;;4593434;19;20274;-32
2022/07/09 02:26:39;;;;;;;;;;;17.40;99.90;;;;;;4593660;19;19978;-32
2022/07/09 02:28:10;;;;;;;;;;;17.50;99.90;;;;;;4593435;19;19922;-33
2022/07/09 02:29:41;;;;;;;;;;;17.40;99.90;;;;;;4592101;19;20288;-32
2022/07/09 02:31:12;;;;;;;;;;;17.50;99.90;;;;;;4592460;19;19923;-32
2022/07/09 02:32:44;;;;;;;;;;;17.50;99.90;;;;;;4591634;19;19923;-32
2022/07/09 02:34:15;;;;;;;;;;;17.50;99.90;;;;;;4592065;19;19947;-31
2022/07/09 02:35:45;;;;;;;;;;;17.50;99.90;;;;;;4594310;19;19919;-32
2022/07/09 02:37:17;;;;;;;;;;;17.50;99.90;;;;;;4593903;19;19922;-32
2022/07/09 02:38:48;;;;;;;;;;;17.50;99.90;;;;;;4593243;19;19918;-31
2022/07/09 02:40:19;;;;;;;;;;;17.40;99.90;;;;;;4593001;19;20235;-32
2022/07/09 02:41:50;;;;;;;;;;;17.50;99.90;;;;;;4592872;19;19919;-33
2022/07/09 02:43:21;;;;;;;;;;;17.40;99.90;;;;;;4591284;19;19919;-32
2022/07/09 02:44:52;;;;;;;;;;;17.50;99.90;;;;;;4591436;19;19918;-32
2022/07/09 02:46:23;;;;;;;;;;;17.50;99.90;;;;;;4591297;19;19915;-32
2022/07/09 02:47:54;;;;;;;;;;;17.40;99.90;;;;;;4591753;19;20342;-32
2022/07/09 02:49:25;;;;;;;;;;;17.40;99.90;;;;;;4592968;19;19948;-31
2022/07/09 02:50:56;;;;;;;;;;;17.40;99.90;;;;;;4593750;19;19946;-32
2022/07/09 02:52:27;;;;;;;;;;;17.40;99.90;;;;;;4592810;19;19945;-32
2022/07/09 02:53:58;;;;;;;;;;;17.40;99.90;;;;;;4592424;19;19922;-32
2022/07/09 02:55:29;;;;;;;;;;;17.40;99.90;;;;;;4592482;19;19934;-32
2022/07/09 02:57:00;;;;;;;;;;;17.40;99.90;;;;;;4592172;19;19915;-32
2022/07/09 02:58:31;;;;;;;;;;;17.40;99.90;;;;;;4590489;19;20309;-32
2022/07/09 03:00:03;;;;;;;;;;;17.40;99.90;;;;;;4590782;19;19914;-32
2022/07/09 03:01:34;;;;;;;;;;;17.40;99.90;;;;;;4590107;19;20329;-32
2022/07/09 03:03:05;;;;;;;;;;;17.40;99.90;;;;;;4593413;19;19921;-32
2022/07/09 03:04:36;;;;;;;;;;;17.40;99.90;;;;;;4592357;19;19915;-33
2022/07/09 03:06:08;;;;;;;;;;;17.40;99.90;;;;;;4593373;19;19929;-32
2022/07/09 03:07:39;;;;;;;;;;;17.40;99.90;;;;;;4593148;19;19974;-32
2022/07/09 03:09:10;;;;;;;;;;;17.40;99.90;;;;;;4592555;19;19939;-32
2022/07/09 03:10:41;;;;;;;;;;;17.40;99.90;;;;;;4593280;19;19915;-32
2022/07/09 03:12:12;;;;;;;;;;;17.40;99.90;;;;;;4592517;19;19971;-31
2022/07/09 03:13:43;;;;;;;;;;;17.40;99.90;;;;;;4592956;19;20340;-32
2022/07/09 03:15:16;;;;;;;;;;;17.40;99.90;;;;;;4591510;19;19919;-31
2022/07/09 03:16:47;;;;;;;;;;;17.50;99.90;;;;;;4592919;19;20241;-32
2022/07/09 03:18:18;;;;;;;;;;;17.40;99.90;;;;;;4592474;19;19911;-32
2022/07/09 03:19:49;;;;;;;;;;;17.40;99.90;;;;;;4592699;19;19914;-31
2022/07/09 03:21:20;;;;;;;;;;;17.40;99.90;;;;;;4593204;19;19987;-32
2022/07/09 03:22:51;;;;;;;;;;;17.40;99.90;;;;;;4592316;19;19911;-32
2022/07/09 03:24:22;;;;;;;;;;;17.40;99.90;;;;;;4592562;19;19987;-32
2022/07/09 03:25:54;;;;;;;;;;;17.40;99.90;;;;;;4592882;19;19923;-32
2022/07/09 03:27:25;;;;;;;;;;;17.40;99.90;;;;;;4593097;19;19914;-32
2022/07/09 03:28:56;;;;;;;;;;;17.40;99.90;;;;;;4591792;19;19930;-31
2022/07/09 03:30:27;;;;;;;;;;;17.40;99.90;;;;;;4592391;19;19962;-32
2022/07/09 03:31:58;;;;;;;;;;;17.50;99.90;;;;;;4593016;19;19931;-32
2022/07/09 03:33:29;;;;;;;;;;;17.40;99.90;;;;;;4592443;19;19915;-32
2022/07/09 03:35:00;;;;;;;;;;;17.40;99.90;;;;;;4592244;19;20286;-32
2022/07/09 03:36:31;;;;;;;;;;;17.40;99.90;;;;;;4592196;19;19919;-31
2022/07/09 03:38:02;;;;;;;;;;;17.50;99.90;;;;;;4592989;19;19915;-31
2022/07/09 03:39:33;;;;;;;;;;;17.50;99.90;;;;;;4592219;19;19929;-32
2022/07/09 03:41:04;;;;;;;;;;;17.40;99.90;;;;;;4592261;19;20342;-32
2022/07/09 03:42:35;;;;;;;;;;;17.40;99.90;;;;;;4590768;19;19922;-32
2022/07/09 03:44:06;;;;;;;;;;;17.50;99.90;;;;;;4592913;19;19925;-32
2022/07/09 03:45:37;;;;;;;;;;;17.50;99.90;;;;;;4592102;19;20257;-33
2022/07/09 03:47:08;;;;;;;;;;;17.40;99.90;;;;;;4591830;19;19914;-33
2022/07/09 03:48:39;;;;;;;;;;;17.50;99.90;;;;;;4591914;19;20241;-32
2022/07/09 03:50:11;;;;;;;;;;;17.40;99.90;;;;;;4592254;19;19922;-31
2022/07/09 03:51:43;;;;;;;;;;;17.40;99.90;;;;;;4590535;19;19915;-33
2022/07/09 03:53:14;;;;;;;;;;;17.40;99.90;;;;;;4590478;19;19922;-31
2022/07/09 03:54:45;;;;;;;;;;;17.40;99.90;;;;;;4592713;19;20324;-31
2022/07/09 03:56:17;;;;;;;;;;;17.40;99.90;;;;;;4591755;19;19918;-33
2022/07/09 03:57:47;;;;;;;;;;;17.40;99.90;;;;;;4591863;19;19918;-33
2022/07/09 03:59:18;;;;;;;;;;;17.40;99.90;;;;;;4591634;19;19978;-32
2022/07/09 04:00:52;;;;;;;;;;;17.50;99.90;;;;;;4591125;19;20120;-32
2022/07/09 04:02:23;;;;;;;;;;;17.40;99.90;;;;;;4590479;19;19919;-33
2022/07/09 04:03:54;;;;;;;;;;;17.40;99.90;;;;;;4591237;19;19927;-33
2022/07/09 04:05:25;;;;;;;;;;;17.40;99.90;;;;;;4592139;19;19926;-34
2022/07/09 04:06:56;;;;;;;;;;;17.50;99.90;;;;;;4591849;19;19954;-31
2022/07/09 04:08:28;;;;;;;;;;;17.40;99.90;;;;;;4591628;19;19919;-31
2022/07/09 04:09:59;;;;;;;;;;;17.40;99.90;;;;;;4590956;19;20357;-32
2022/07/09 04:11:31;;;;;;;;;;;17.50;99.90;;;;;;4592009;19;19915;-32
2022/07/09 04:13:02;;;;;;;;;;;17.50;99.90;;;;;;4591732;19;19911;-31
2022/07/09 04:14:33;;;;;;;;;;;17.50;99.90;;;;;;4591541;19;19946;-33
2022/07/09 04:16:04;;;;;;;;;;;17.50;99.90;;;;;;4591792;19;19915;-32
2022/07/09 04:17:36;;;;;;;;;;;17.50;99.90;;;;;;4592296;19;19922;-32
2022/07/09 04:19:07;;;;;;;;;;;17.50;99.90;;;;;;4591011;19;19922;-31
2022/07/09 04:20:38;;;;;;;;;;;17.50;99.90;;;;;;4591637;19;19923;-32
2022/07/09 04:22:09;;;;;;;;;;;17.50;99.90;;;;;;4592053;19;19918;-32
2022/07/09 04:23:40;;;;;;;;;;;17.50;99.90;;;;;;4591346;19;20044;-33
2022/07/09 04:25:11;;;;;;;;;;;17.50;99.90;;;;;;4591231;19;19922;-32
2022/07/09 04:26:43;;;;;;;;;;;17.50;99.90;;;;;;4591712;19;19946;-32
2022/07/09 04:28:13;;;;;;;;;;;17.50;99.90;;;;;;4590154;19;19911;-33
2022/07/09 04:29:44;;;;;;;;;;;17.50;99.90;;;;;;4589949;19;19918;-32
2022/07/09 04:31:19;;;;;;;;;;;17.50;99.90;;;;;;4591037;19;19918;-32
2022/07/09 04:32:50;;;;;;;;;;;17.50;99.90;;;;;;4591211;19;19926;-32
2022/07/09 04:34:21;;;;;;;;;;;17.50;99.90;;;;;;4590678;19;19922;-32
2022/07/09 04:35:52;;;;;;;;;;;17.50;99.90;;;;;;4591164;19;19929;-32
2022/07/09 04:37:23;;;;;;;;;;;17.50;99.90;;;;;;4591341;19;19914;-31
2022/07/09 04:38:55;;;;;;;;;;;17.50;99.90;;;;;;4591133;19;19980;-33
2022/07/09 04:40:26;;;;;;;;;;;17.50;99.90;;;;;;4591753;19;19938;-31
2022/07/09 04:41:57;;;;;;;;;;;17.50;99.90;;;;;;4590792;19;19926;-32
2022/07/09 04:43:29;;;;;;;;;;;17.50;99.90;;;;;;4590964;19;20098;-33
2022/07/09 04:45:01;;;;;;;;;;;17.50;99.90;;;;;;4590931;19;19929;-32
2022/07/09 04:46:32;;;;;;;;;;;17.50;99.90;;;;;;4591298;19;19917;-32
2022/07/09 04:48:03;;;;;;;;;;;17.50;99.90;;;;;;4591001;19;19922;-32
2022/07/09 04:49:34;;;;;;;;;;;17.50;99.90;;;;;;4590022;19;19910;-32
2022/07/09 04:51:05;;;;;;;;;;;17.50;99.90;;;;;;4591330;19;19971;-32
2022/07/09 04:52:36;;;;;;;;;;;17.50;99.90;;;;;;4589140;19;19939;-32
2022/07/09 04:54:07;;;;;;;;;;;17.50;99.90;;;;;;4589150;19;19922;-30
2022/07/09 04:55:38;;;;;;;;;;;17.50;99.90;;;;;;4594820;19;19907;-33
2022/07/09 04:57:09;;;;;;;;;;;17.50;99.90;;;;;;4596076;19;19926;-29
2022/07/09 04:58:51;;;;;;;;;;;17.50;99.90;;;;;;4595274;19;19974;-33
2022/07/09 05:00:22;;;;;;;;;;;17.50;99.90;;;;;;4595433;19;19922;-31
2022/07/09 05:01:53;;;;;;;;;;;17.50;99.90;;;;;;4594427;19;19986;-32
2022/07/09 05:03:24;;;;;;;;;;;17.50;99.90;;;;;;4595487;19;19982;-32
2022/07/09 05:04:55;;;;;;;;;;;17.50;99.90;;;;;;4595106;19;19918;-31
2022/07/09 05:06:26;;;;;;;;;;;17.60;99.90;;;;;;4595386;19;19919;-31
2022/07/09 05:07:57;;;;;;;;;;;17.60;99.90;;;;;;4595620;19;20321;-33
2022/07/09 05:09:29;;;;;;;;;;;17.60;99.90;;;;;;4594396;19;19942;-33
2022/07/09 05:11:00;;;;;;;;;;;17.60;99.90;;;;;;4593937;19;19919;-33
2022/07/09 05:12:30;;;;;;;;;;;17.60;99.90;;;;;;4594232;19;20350;-32
2022/07/09 05:14:01;;;;;;;;;;;17.60;99.90;;;;;;4596050;19;19933;-32
2022/07/09 05:15:33;;;;;;;;;;;17.60;99.90;;;;;;4595093;19;19922;-32
2022/07/09 05:17:04;;;;;;;;;;;17.60;99.90;;;;;;4593494;19;19911;-32
2022/07/09 05:18:35;;;;;;;;;;;17.60;99.90;;;;;;4593388;19;19922;-32
2022/07/09 05:20:07;;;;;;;;;;;17.60;99.90;;;;;;4593393;19;19918;-32
2022/07/09 05:21:41;;;;;;;;;;;17.70;99.90;;;;;;4595690;19;19918;-32
2022/07/09 05:23:12;;;;;;;;;;;17.70;99.90;;;;;;4595525;19;19939;-34
2022/07/09 05:24:43;;;;;;;;;;;17.70;99.90;;;;;;4594987;19;19926;-32
2022/07/09 05:26:14;;;;;;;;;;;17.70;99.90;;;;;;4595065;19;19922;-33
2022/07/09 05:27:45;;;;;;;;;;;17.70;99.90;;;;;;4594271;19;20289;-32
2022/07/09 05:29:16;;;;;;;;;;;17.70;99.90;;;;;;4593265;19;19926;-33
2022/07/09 05:30:47;;;;;;;;;;;17.80;99.90;;;;;;4593741;19;19989;-32
2022/07/09 05:32:18;;;;;;;;;;;17.80;99.90;;;;;;4593534;19;19930;-34
2022/07/09 05:33:50;;;;;;;;;;;17.80;99.90;;;;;;4592921;19;19928;-32
2022/07/09 05:35:21;;;;;;;;;;;17.80;99.90;;;;;;4592914;19;19926;-33
2022/07/09 05:36:54;;;;;;;;;;;17.80;99.90;;;;;;4595325;19;20343;-32
2022/07/09 05:38:25;;;;;;;;;;;17.80;99.90;;;;;;4594786;19;19923;-32
2022/07/09 05:39:57;;;;;;;;;;;17.80;99.90;;;;;;4593740;19;19937;-33
2022/07/09 05:41:28;;;;;;;;;;;17.80;99.90;;;;;;4593228;19;19907;-33
2022/07/09 05:42:59;;;;;;;;;;;17.90;99.90;;;;;;4592966;19;19922;-33
2022/07/09 05:44:30;;;;;;;;;;;17.80;99.90;;;;;;4592810;19;19919;-32
2022/07/09 05:46:02;;;;;;;;;;;17.80;99.90;;;;;;4592623;19;19923;-32
2022/07/09 05:47:33;;;;;;;;;;;17.80;99.90;;;;;;4594970;19;19915;-33
2022/07/09 05:49:04;;;;;;;;;;;17.80;99.90;;;;;;4594208;19;20343;-33
2022/07/09 05:50:34;;;;;;;;;;;17.90;99.90;;;;;;4594349;19;20244;-33
2022/07/09 05:52:06;;;;;;;;;;;17.80;99.90;;;;;;4593520;19;19938;-32
2022/07/09 05:53:37;;;;;;;;;;;17.80;99.90;;;;;;4593097;19;20335;-32
2022/07/09 05:55:08;;;;;;;;;;;17.90;99.90;;;;;;4593330;19;19940;-32
2022/07/09 05:56:39;;;;;;;;;;;17.90;99.90;;;;;;4592444;19;19925;-32
2022/07/09 05:58:10;;;;;;;;;;;17.90;99.90;;;;;;4592222;19;20455;-33
2022/07/09 05:59:41;;;;;;;;;;;17.90;99.90;;;;;;4592733;19;19919;-33
2022/07/09 06:01:13;;;;;;;;;;;17.90;99.90;;;;;;4594936;19;19950;-31
2022/07/09 06:02:43;;;;;;;;;;;18.00;99.90;;;;;;4594466;19;19919;-32
2022/07/09 06:04:15;;;;;;;;;;;18.00;99.90;;;;;;4591967;19;20525;-32
2022/07/09 06:05:46;;;;;;;;;;;17.90;99.90;;;;;;4592169;19;19910;-32
2022/07/09 06:07:17;;;;;;;;;;;18.00;99.90;;;;;;4593392;19;19915;-32
2022/07/09 06:08:48;;;;;;;;;;;18.00;99.90;;;;;;4592707;19;19922;-27
2022/07/09 06:10:19;;;;;;;;;;;18.00;99.90;;;;;;4592470;19;20640;-32
2022/07/09 06:11:50;;;;;;;;;;;18.00;99.90;;;;;;4591123;19;20325;-32
2022/07/09 06:13:21;;;;;;;;;;;18.00;99.90;;;;;;4591586;19;19915;-32
2022/07/09 06:14:52;;;;;;;;;;;18.00;99.90;;;;;;4593329;19;19942;-31
2022/07/09 06:16:23;;;;;;;;;;;18.00;99.90;;;;;;4592640;19;19925;-32
2022/07/09 06:17:54;;;;;;;;;;;18.00;99.90;;;;;;4593773;19;19915;-32
2022/07/09 06:19:25;;;;;;;;;;;18.00;99.90;;;;;;4592942;19;19996;-32
2022/07/09 06:20:57;;;;;;;;;;;18.00;99.90;;;;;;4592618;19;19911;-31
2022/07/09 06:22:28;;;;;;;;;;;18.00;99.90;;;;;;4594104;19;19923;-32
2022/07/09 06:23:59;;;;;;;;;;;18.00;99.90;;;;;;4593583;19;19911;-32
2022/07/09 06:25:30;;;;;;;;;;;18.00;99.90;;;;;;4594290;19;19985;-31
2022/07/09 06:27:01;;;;;;;;;;;18.00;99.90;;;;;;4593707;19;19943;-32
2022/07/09 06:28:35;;;;;;;;;;;18.00;99.90;;;;;;4593771;19;19922;-33
2022/07/09 06:30:06;;;;;;;;;;;18.00;99.90;;;;;;4592719;19;19946;-32
2022/07/09 06:31:37;;;;;;;;;;;18.00;99.90;;;;;;4594402;19;19918;-32
2022/07/09 06:33:08;;;;;;;;;;;18.00;99.90;;;;;;4594390;19;19926;-32
2022/07/09 06:34:39;;;;;;;;;;;18.00;99.90;;;;;;4593763;19;19949;-31
2022/07/09 06:36:10;;;;;;;;;;;18.00;99.90;;;;;;4593015;19;19914;-31
2022/07/09 06:37:41;;;;;;;;;;;18.10;99.90;;;;;;4592873;19;19915;-31
2022/07/09 06:41:01;;;;;;;;;;;18.10;99.90;;;;;;4591683;19;19914;-32
2022/07/09 06:42:32;;;;;;;;;;;18.10;99.90;;;;;;4594188;19;19914;-31
2022/07/09 06:44:03;;;;;;;;;;;18.10;99.90;;;;;;4590339;19;19915;-32
2022/07/09 06:45:34;;;;;;;;;;;18.20;99.90;;;;;;4593920;19;19919;-31
2022/07/09 06:47:05;;;;;;;;;;;18.20;99.90;;;;;;4593232;19;20339;-32
2022/07/09 06:48:36;;;;;;;;;;;18.20;99.90;;;;;;4592653;19;19915;-32
2022/07/09 06:50:07;;;;;;;;;;;18.20;99.90;;;;;;4590733;19;19994;-31
2022/07/09 06:51:38;;;;;;;;;;;18.30;99.90;;;;;;4592350;19;19919;-32
2022/07/09 06:53:09;;;;;;;;;;;18.20;99.90;;;;;;4593679;19;19987;-32
2022/07/09 06:54:40;;;;;;;;;;;18.20;99.90;;;;;;4588513;19;19926;-31
2022/07/09 06:56:11;;;;;;;;;;;18.20;99.90;;;;;;4590891;19;19987;-31
2022/07/09 06:57:42;;;;;;;;;;;18.20;99.90;;;;;;4591448;19;19974;-32
2022/07/09 06:59:13;;;;;;;;;;;18.20;99.90;;;;;;4591449;19;19978;-34
2022/07/09 07:00:44;;;;;;;;;;;18.20;99.90;;;;;;4590082;19;20360;-32
2022/07/09 07:02:18;;;;;;;;;;;18.20;99.90;;;;;;4594049;19;19918;-31
2022/07/09 07:03:49;;;;;;;;;;;18.20;99.90;;;;;;4592368;19;20322;-32
2022/07/09 07:05:20;;;;;;;;;;;18.20;99.90;;;;;;4591538;19;19919;-33
2022/07/09 07:06:51;;;;;;;;;;;18.20;99.90;;;;;;4592326;19;19923;-32
2022/07/09 07:08:22;;;;;;;;;;;18.20;99.90;;;;;;4590072;19;20701;-31
2022/07/09 07:09:53;;;;;;;;;;;18.20;99.90;;;;;;4590926;19;19938;-31
2022/07/09 07:11:24;;;;;;;;;;;18.20;99.90;;;;;;4591805;19;20281;-31
2022/07/09 07:12:55;;;;;;;;;;;18.20;99.90;;;;;;4592130;19;19930;-30
2022/07/09 07:14:26;;;;;;;;;;;18.20;99.90;;;;;;4592104;19;19914;-31
2022/07/09 07:15:58;;;;;;;;;;;18.20;99.90;;;;;;4591302;19;19919;-33
2022/07/09 07:17:29;;;;;;;;;;;18.20;99.90;;;;;;4588924;19;20249;-31
2022/07/09 07:19:00;;;;;;;;;;;18.20;99.90;;;;;;4592740;19;19925;-32
2022/07/09 07:20:31;;;;;;;;;;;18.20;99.90;;;;;;4591818;19;19937;-31
2022/07/09 07:22:02;;;;;;;;;;;18.20;99.90;;;;;;4591741;19;19942;-30
2022/07/09 07:23:33;;;;;;;;;;;18.20;99.90;;;;;;4592263;19;20288;-31
2022/07/09 07:25:05;;;;;;;;;;;18.20;99.90;;;;;;4592614;19;19919;-32
2022/07/09 07:26:36;;;;;;;;;;;18.30;99.90;;;;;;4591912;19;19915;-33
2022/07/09 07:28:07;;;;;;;;;;;18.30;99.90;;;;;;4592425;19;19907;-32
2022/07/09 07:29:38;;;;;;;;;;;18.30;99.90;;;;;;4591441;19;20309;-32
2022/07/09 07:31:09;;;;;;;;;;;18.30;99.90;;;;;;4592177;19;19915;-30
2022/07/09 07:32:40;;;;;;;;;;;18.40;99.90;;;;;;4591488;19;19915;-32
2022/07/09 07:34:11;;;;;;;;;;;18.30;99.90;;;;;;4590271;19;20317;-33
2022/07/09 07:35:45;;;;;;;;;;;18.30;99.90;;;;;;4592639;19;19948;-32
2022/07/09 07:37:16;;;;;;;;;;;18.30;99.90;;;;;;4591710;19;19918;-30
2022/07/09 07:38:47;;;;;;;;;;;18.30;99.90;;;;;;4591746;19;20328;-32
2022/07/09 07:40:18;;;;;;;;;;;18.30;99.90;;;;;;4592384;19;21035;-32
2022/07/09 07:41:49;;;;;;;;;;;18.30;99.90;;;;;;4591427;19;19915;-33
2022/07/09 07:43:20;;;;;;;;;;;18.30;99.90;;;;;;4592450;19;19918;-31
2022/07/09 07:44:51;;;;;;;;;;;18.30;99.90;;;;;;4590847;19;19923;-32
2022/07/09 07:46:22;;;;;;;;;;;18.30;99.90;;;;;;4591579;19;19944;-32
2022/07/09 07:47:54;;;;;;;;;;;18.20;99.90;;;;;;4591549;19;20016;-33
2022/07/09 07:49:25;;;;;;;;;;;18.30;99.90;;;;;;4591802;19;19925;-32
2022/07/09 07:50:56;;;;;;;;;;;18.20;99.90;;;;;;4592360;19;19922;-33
2022/07/09 07:52:27;;;;;;;;;;;18.20;99.90;;;;;;4591817;19;20317;-31
2022/07/09 07:53:58;;;;;;;;;;;18.20;99.90;;;;;;4591699;19;19918;-32
2022/07/09 07:55:29;;;;;;;;;;;18.20;99.90;;;;;;4591501;19;19911;-32
2022/07/09 07:57:00;;;;;;;;;;;18.20;99.90;;;;;;4590916;19;19915;-32
2022/07/09 07:58:31;;;;;;;;;;;18.20;99.90;;;;;;4590687;19;19915;-31
2022/07/09 08:00:03;;;;;;;;;;;18.20;99.90;;;;;;4591297;19;19925;-32
2022/07/09 08:01:33;;;;;;;;;;;18.20;99.90;;;;;;4591262;19;19915;-33
2022/07/09 08:03:04;;;;;;;;;;;18.30;99.90;;;;;;4591748;19;20282;-32
2022/07/09 08:06:25;;;;;;;;;;;18.30;99.90;;;;;;4592748;19;19925;-32
2022/07/09 08:07:56;;;;;;;;;;;18.30;99.90;;;;;;4592328;19;19937;-32
2022/07/09 08:09:27;;;;;;;;;;;18.30;99.90;;;;;;4591090;19;19922;-32
2022/07/09 08:10:58;;;;;;;;;;;18.30;99.90;;;;;;4592200;19;19959;-32
2022/07/09 08:12:29;;;;;;;;;;;18.30;99.90;;;;;;4591282;19;19914;-33
2022/07/09 08:14:01;;;;;;;;;;;18.30;99.90;;;;;;4591619;19;19922;-32
2022/07/09 08:15:32;;;;;;;;;;;18.40;99.90;;;;;;4591054;19;19918;-32
2022/07/09 08:17:03;;;;;;;;;;;18.30;99.90;;;;;;4591473;19;19917;-32
2022/07/09 08:18:34;;;;;;;;;;;18.30;99.90;;;;;;4589954;19;19970;-32
2022/07/09 08:20:05;;;;;;;;;;;18.40;99.90;;;;;;4590819;19;20298;-33
2022/07/09 08:21:36;;;;;;;;;;;18.40;99.90;;;;;;4591435;19;19919;-32
2022/07/09 08:23:07;;;;;;;;;;;18.40;99.90;;;;;;4590916;19;19970;-32
2022/07/09 08:24:38;;;;;;;;;;;18.40;99.90;;;;;;4591077;19;19926;-33
2022/07/09 08:26:09;;;;;;;;;;;18.40;99.90;;;;;;4589999;19;19946;-33
2022/07/09 08:27:40;;;;;;;;;;;18.40;99.90;;;;;;4590620;19;19918;-33
2022/07/09 08:29:11;;;;;;;;;;;18.40;99.90;;;;;;4587601;19;20241;-33
2022/07/09 08:30:42;;;;;;;;;;;18.40;99.90;;;;;;4588715;19;19931;-34
2022/07/09 08:32:13;;;;;;;;;;;18.40;99.90;;;;;;4591810;19;19915;-32
2022/07/09 08:33:44;;;;;;;;;;;18.50;99.90;;;;;;4591867;19;19915;-33
2022/07/09 08:35:15;;;;;;;;;;;18.50;99.90;;;;;;4590976;19;19922;-33
2022/07/09 08:36:46;;;;;;;;;;;18.40;99.90;;;;;;4591108;19;19951;-32
2022/07/09 08:38:17;;;;;;;;;;;18.40;99.90;;;;;;4591121;19;19938;-33
2022/07/09 08:39:48;;;;;;;;;;;18.50;99.90;;;;;;4591814;19;19926;-32
2022/07/09 08:41:19;;;;;;;;;;;18.50;99.90;;;;;;4589960;19;19910;-33
2022/07/09 08:42:51;;;;;;;;;;;18.50;99.90;;;;;;4590766;19;19931;-33
2022/07/09 08:44:22;;;;;;;;;;;18.60;99.90;;;;;;4589144;19;19933;-33
2022/07/09 08:45:55;;;;;;;;;;;18.60;99.90;;;;;;4589806;19;19918;-32
2022/07/09 08:47:26;;;;;;;;;;;18.60;99.90;;;;;;4589873;19;19982;-33
2022/07/09 08:48:58;;;;;;;;;;;18.60;99.90;;;;;;4590581;19;19923;-32
2022/07/09 08:50:29;;;;;;;;;;;18.60;99.90;;;;;;4591170;19;19915;-32
2022/07/09 08:52:00;;;;;;;;;;;18.60;99.90;;;;;;4590519;19;19918;-33
2022/07/09 08:53:30;;;;;;;;;;;18.60;99.90;;;;;;4589407;19;19969;-32